Time;durP1;ratioP1;P1;durP2;ratioP2;P2;SDS_P1;SDS_P2;PMS_P1;PMS_P2;Temp;Humidity;BMP_temperature;BMP_pressure;BME280_temperature;BME280_humidity;BME280_pressure;Samples;Min_cycle;Max_cycle;Signal;HPM_P1;HPM_P2
2021/12/15 00:01:34;;;;;;;22.37;10.57;;;8.70;85.10;;;;;;5100019;28;20766;-76
2021/12/15 00:04:04;;;;;;;21.47;10.03;;;8.70;85.20;;;;;;5105357;28;20216;-75
2021/12/15 00:06:33;;;;;;;21.17;9.40;;;8.70;85.20;;;;;;5104669;28;20187;-76
2021/12/15 00:09:06;;;;;;;22.10;10.17;;;8.70;85.20;;;;;;5105784;28;20192;-76
2021/12/15 00:11:37;;;;;;;20.70;10.80;;;8.70;85.20;;;;;;5104782;28;20180;-76
2021/12/15 00:14:08;;;;;;;20.67;10.13;;;8.70;85.40;;;;;;5104879;28;20203;-76
2021/12/15 00:16:37;;;;;;;21.50;10.50;;;8.60;85.30;;;;;;5103707;28;20180;-76
2021/12/15 00:19:07;;;;;;;22.70;10.73;;;8.60;85.40;;;;;;5092326;28;20211;-75
2021/12/15 00:21:36;;;;;;;22.03;11.07;;;8.60;85.50;;;;;;5104587;28;20200;-75
2021/12/15 00:24:08;;;;;;;23.83;10.90;;;8.70;85.60;;;;;;5102134;28;20720;-76
2021/12/15 00:26:37;;;;;;;24.03;11.83;;;8.70;85.60;;;;;;5102147;28;20265;-76
2021/12/15 00:29:07;;;;;;;20.63;10.47;;;8.70;85.60;;;;;;5093894;28;20200;-76
2021/12/15 00:31:37;;;;;;;22.63;10.43;;;8.70;85.60;;;;;;5104689;28;20196;-76
2021/12/15 00:34:07;;;;;;;21.30;9.87;;;8.70;85.70;;;;;;5092767;28;20184;-76
2021/12/15 00:36:36;;;;;;;21.60;9.83;;;8.80;85.70;;;;;;5102081;28;20197;-76
2021/12/15 00:39:07;;;;;;;23.30;10.73;;;8.80;85.60;;;;;;5100483;28;20209;-76
2021/12/15 00:41:36;;;;;;;22.57;10.23;;;8.90;85.60;;;;;;5100986;28;20196;-76
2021/12/15 00:44:05;;;;;;;23.43;10.33;;;8.90;85.60;;;;;;5100287;28;20220;-76
2021/12/15 00:46:33;;;;;;;23.27;10.70;;;8.90;85.60;;;;;;5099987;28;20204;-76
2021/12/15 00:49:01;;;;;;;22.97;9.93;;;8.90;85.50;;;;;;5103132;28;20750;-76
2021/12/15 00:51:30;;;;;;;22.40;10.20;;;8.90;85.40;;;;;;5097026;28;20204;-76
2021/12/15 00:53:58;;;;;;;21.57;10.20;;;8.90;85.40;;;;;;5092882;27;20197;-76
2021/12/15 00:56:28;;;;;;;22.50;11.07;;;9.00;85.40;;;;;;5099381;27;20204;-76
2021/12/15 00:58:57;;;;;;;22.77;11.10;;;9.00;85.40;;;;;;5102219;27;20189;-76
2021/12/15 01:01:26;;;;;;;28.70;12.20;;;9.10;85.40;;;;;;5110700;27;20189;-76
2021/12/15 01:03:55;;;;;;;26.00;11.60;;;9.10;85.30;;;;;;5093058;27;20220;-76
2021/12/15 01:06:23;;;;;;;25.30;10.73;;;9.10;85.20;;;;;;5102847;27;20285;-76
2021/12/15 01:08:57;;;;;;;21.53;10.77;;;9.10;85.20;;;;;;5095073;27;20538;-76
2021/12/15 01:11:46;;;;;;;20.03;9.80;;;9.20;85.20;;;;;;5101418;27;20194;-76
2021/12/15 01:19:46;;;;;;;25.80;10.83;;;9.20;85.10;;;;;;5100791;27;20247;-76
2021/12/15 01:20:22;;;;;;;24.90;10.80;;;9.20;85.00;;;;;;5093376;27;20188;-76
2021/12/15 01:22:54;;;;;;;20.30;10.07;;;9.20;85.20;;;;;;5095851;27;20212;-76
2021/12/15 01:25:26;;;;;;;22.50;11.73;;;9.20;84.90;;;;;;5100330;27;20752;-76
2021/12/15 01:27:56;;;;;;;24.70;11.40;;;9.20;84.90;;;;;;5096326;28;20226;-76
2021/12/15 01:30:29;;;;;;;26.67;12.00;;;9.30;84.90;;;;;;5094833;27;20189;-77
2021/12/15 01:33:00;;;;;;;22.97;11.13;;;9.30;84.90;;;;;;5103129;27;20183;-76
2021/12/15 01:35:29;;;;;;;27.27;11.90;;;9.30;84.80;;;;;;5089586;27;20181;-76
2021/12/15 01:37:59;;;;;;;29.10;12.20;;;9.30;84.70;;;;;;5097478;28;20200;-77
2021/12/15 01:40:34;;;;;;;24.60;11.90;;;9.30;84.70;;;;;;5100909;27;20257;-76
2021/12/15 01:43:12;;;;;;;24.83;11.43;;;9.30;84.70;;;;;;5098003;27;20238;-76
2021/12/15 01:48:27;;;;;;;31.50;12.73;;;9.30;84.80;;;;;;5096189;28;20646;-76
2021/12/15 01:50:59;;;;;;;26.77;11.77;;;9.40;84.70;;;;;;5098497;27;20196;-77
2021/12/15 01:53:27;;;;;;;26.60;11.43;;;9.40;84.70;;;;;;5101331;27;20549;-76
2021/12/15 01:55:59;;;;;;;30.50;12.97;;;9.40;84.70;;;;;;5094520;28;20193;-77
2021/12/15 01:58:29;;;;;;;29.60;12.63;;;9.40;84.60;;;;;;5099209;28;20831;-76
2021/12/15 02:01:01;;;;;;;28.53;12.93;;;9.40;84.60;;;;;;5098460;27;20181;-75
2021/12/15 02:03:30;;;;;;;27.00;12.50;;;9.40;84.40;;;;;;5092567;28;20280;-76
2021/12/15 02:06:00;;;;;;;31.87;12.77;;;9.40;84.40;;;;;;5098768;28;20589;-76
2021/12/15 02:08:29;;;;;;;27.23;12.43;;;9.40;84.40;;;;;;5097049;28;20193;-76
2021/12/15 02:10:57;;;;;;;29.87;12.13;;;9.40;84.40;;;;;;5091697;28;20985;-75
2021/12/15 02:13:26;;;;;;;26.27;12.80;;;9.40;84.40;;;;;;5097083;28;20189;-76
2021/12/15 02:16:00;;;;;;;29.17;13.33;;;9.40;84.30;;;;;;5099770;28;20195;-77
2021/12/15 02:18:31;;;;;;;29.90;12.47;;;9.40;84.30;;;;;;5099414;28;20192;-76
2021/12/15 02:21:05;;;;;;;29.63;13.30;;;9.30;84.30;;;;;;5096731;28;20767;-77
2021/12/15 02:23:39;;;;;;;28.43;12.40;;;9.40;84.40;;;;;;5104686;28;20213;-76
2021/12/15 02:26:15;;;;;;;35.43;14.10;;;9.40;84.40;;;;;;5096895;28;20617;-76
2021/12/15 02:28:46;;;;;;;32.50;13.43;;;9.40;84.40;;;;;;5100069;28;20515;-76
2021/12/15 02:31:25;;;;;;;31.60;14.00;;;9.40;84.30;;;;;;5092827;28;20732;-76
2021/12/15 02:34:06;;;;;;;30.40;12.00;;;9.40;84.20;;;;;;5099757;28;20276;-75
2021/12/15 02:39:21;;;;;;;27.83;12.20;;;9.30;84.10;;;;;;5101374;28;20711;-77
2021/12/15 02:41:50;;;;;;;25.97;12.20;;;9.40;84.20;;;;;;5096467;28;20197;-76
2021/12/15 02:44:21;;;;;;;27.47;11.70;;;9.30;84.00;;;;;;5098156;28;20212;-75
2021/12/15 02:46:51;;;;;;;28.00;11.17;;;9.30;84.10;;;;;;5100784;28;20195;-76
2021/12/15 02:49:23;;;;;;;22.20;10.67;;;9.30;84.10;;;;;;5098994;28;20207;-76
2021/12/15 02:51:53;;;;;;;26.57;11.77;;;9.30;83.90;;;;;;5097217;28;20197;-76
2021/12/15 02:54:23;;;;;;;23.63;10.73;;;9.30;83.80;;;;;;5095258;28;20185;-76
2021/12/15 02:56:53;;;;;;;24.47;11.20;;;9.20;83.80;;;;;;5088685;28;20251;-76
2021/12/15 02:59:24;;;;;;;24.23;10.53;;;9.20;83.80;;;;;;5098131;27;20657;-77
2021/12/15 03:02:00;;;;;;;22.20;10.90;;;9.20;84.00;;;;;;5104159;27;20189;-76
2021/12/15 03:04:38;;;;;;;23.53;11.10;;;9.20;84.10;;;;;;5100846;28;20213;-76
2021/12/15 03:07:15;;;;;;;25.90;10.93;;;9.20;84.00;;;;;;5101887;28;20185;-75
2021/12/15 03:15:29;;;;;;;26.73;11.20;;;9.10;84.00;;;;;;5105289;27;20204;-76
2021/12/15 03:18:00;;;;;;;28.50;11.63;;;9.10;84.00;;;;;;5104597;28;20868;-76
2021/12/15 03:20:30;;;;;;;23.83;10.97;;;9.10;84.10;;;;;;5101399;27;20609;-76
2021/12/15 03:23:00;;;;;;;27.03;10.83;;;9.10;84.20;;;;;;5104830;28;20203;-76
2021/12/15 03:25:30;;;;;;;25.60;11.23;;;9.10;84.30;;;;;;5103023;27;20229;-76
2021/12/15 03:33:44;;;;;;;26.77;11.83;;;9.10;84.40;;;;;;5105683;28;20193;-76
2021/12/15 03:36:24;;;;;;;31.23;12.30;;;9.10;84.30;;;;;;5101481;27;20200;-76
2021/12/15 03:38:53;;;;;;;36.47;12.07;;;9.10;84.30;;;;;;5104842;28;20206;-76
2021/12/15 03:41:23;;;;;;;34.67;12.00;;;9.10;84.40;;;;;;5105693;28;20203;-76
2021/12/15 03:43:52;;;;;;;33.40;13.17;;;9.10;84.40;;;;;;5099443;27;20673;-76
2021/12/15 03:46:20;;;;;;;39.23;13.97;;;9.20;84.60;;;;;;5100679;28;20809;-76
2021/12/15 03:48:49;;;;;;;26.07;11.73;;;9.10;84.50;;;;;;5103909;28;20249;-76
2021/12/15 03:51:18;;;;;;;30.63;12.53;;;9.20;84.60;;;;;;5105024;28;20197;-76
2021/12/15 03:53:47;;;;;;;34.87;14.07;;;9.20;84.60;;;;;;5105713;27;20204;-76
2021/12/15 03:56:17;;;;;;;30.00;12.37;;;9.20;84.60;;;;;;5103480;28;20197;-76
2021/12/15 03:58:47;;;;;;;34.40;12.97;;;9.20;84.60;;;;;;5108942;27;20222;-76
2021/12/15 04:01:19;;;;;;;32.57;13.13;;;9.20;84.60;;;;;;5110795;27;20184;-76
2021/12/15 04:03:50;;;;;;;36.97;13.63;;;9.20;84.60;;;;;;5100761;27;20211;-76
2021/12/15 04:06:21;;;;;;;35.67;13.00;;;9.20;84.50;;;;;;5102224;27;20193;-76
2021/12/15 04:08:51;;;;;;;31.97;13.90;;;9.20;84.50;;;;;;5112390;27;20192;-76
2021/12/15 04:11:24;;;;;;;30.53;11.80;;;9.20;84.60;;;;;;5101357;28;20315;-76
2021/12/15 04:13:59;;;;;;;27.77;12.00;;;9.30;84.40;;;;;;5104769;28;20193;-77
2021/12/15 04:16:42;;;;;;;32.83;12.40;;;9.30;84.40;;;;;;5102973;28;20200;-76
2021/12/15 04:19:13;;;;;;;33.17;13.30;;;9.30;84.40;;;;;;5097854;27;20188;-76
2021/12/15 04:21:42;;;;;;;37.10;14.70;;;9.30;84.40;;;;;;5101817;28;20192;-76
2021/12/15 04:24:14;;;;;;;37.13;15.33;;;9.20;84.40;;;;;;5102155;28;20247;-76
2021/12/15 04:26:45;;;;;;;43.13;15.07;;;9.20;84.40;;;;;;5106770;27;20847;-76
2021/12/15 04:29:14;;;;;;;33.70;14.07;;;9.20;84.60;;;;;;5098879;28;20196;-76
2021/12/15 04:31:49;;;;;;;36.27;15.50;;;9.20;84.60;;;;;;5101449;27;20196;-77
2021/12/15 04:34:18;;;;;;;33.43;14.67;;;9.20;84.80;;;;;;5114702;27;20184;-77
2021/12/15 04:36:49;;;;;;;36.70;14.07;;;9.10;84.90;;;;;;5102921;27;20193;-77
2021/12/15 04:39:20;;;;;;;35.33;14.67;;;9.10;85.00;;;;;;5101876;27;20195;-76
2021/12/15 04:41:52;;;;;;;40.60;14.50;;;9.00;85.20;;;;;;5104291;27;20184;-76
2021/12/15 04:44:22;;;;;;;40.40;13.40;;;9.00;85.40;;;;;;5101349;27;20212;-76
2021/12/15 04:46:59;;;;;;;37.70;14.60;;;9.00;85.50;;;;;;5104514;27;20220;-76
2021/12/15 04:49:32;;;;;;;34.20;14.10;;;9.00;85.70;;;;;;5103360;27;20212;-76
2021/12/15 04:52:01;;;;;;;37.23;14.17;;;8.90;85.70;;;;;;5103376;28;20189;-77
2021/12/15 04:54:31;;;;;;;46.43;17.43;;;8.90;85.80;;;;;;5100733;28;20199;-76
2021/12/15 04:57:01;;;;;;;40.80;15.47;;;8.90;85.80;;;;;;5101552;28;20230;-76
2021/12/15 04:59:30;;;;;;;39.33;15.77;;;8.90;86.00;;;;;;5104010;27;20896;-77
2021/12/15 05:02:01;;;;;;;36.17;14.07;;;8.90;86.10;;;;;;5102112;27;20205;-76
2021/12/15 05:04:29;;;;;;;33.47;14.27;;;8.90;87.00;;;;;;5097277;28;20246;-76
2021/12/15 05:06:59;;;;;;;44.47;15.63;;;8.80;86.30;;;;;;5102320;28;20858;-76
2021/12/15 05:09:27;;;;;;;39.60;15.77;;;8.80;86.30;;;;;;5094302;27;20877;-76
2021/12/15 05:11:55;;;;;;;38.97;16.47;;;8.80;86.40;;;;;;5097484;28;20196;-76
2021/12/15 05:14:26;;;;;;;43.83;17.15;;;8.80;86.40;;;;;;5102762;28;20433;-76
2021/12/15 05:16:55;;;;;;;38.13;15.00;;;8.80;86.80;;;;;;5099977;28;20290;-76
2021/12/15 05:19:25;;;;;;;45.27;16.20;;;8.80;87.70;;;;;;5094977;27;20201;-76
2021/12/15 05:21:56;;;;;;;41.67;16.53;;;8.90;86.90;;;;;;5103072;28;20178;-75
2021/12/15 05:24:31;;;;;;;41.80;16.53;;;8.90;86.90;;;;;;5102081;28;20337;-76
2021/12/15 05:27:02;;;;;;;43.23;15.97;;;8.90;86.90;;;;;;5094734;28;20184;-76
2021/12/15 05:29:32;;;;;;;36.67;14.87;;;8.90;86.80;;;;;;5101376;28;20196;-76
2021/12/15 05:32:01;;;;;;;43.13;14.87;;;8.90;86.80;;;;;;5101946;28;20196;-77
2021/12/15 05:34:30;;;;;;;40.17;14.93;;;8.90;86.80;;;;;;5099561;28;20193;-77
2021/12/15 05:36:59;;;;;;;36.83;14.20;;;8.90;86.80;;;;;;5098218;28;20199;-76
2021/12/15 05:39:28;;;;;;;43.50;15.07;;;9.00;86.80;;;;;;5102160;28;20181;-76
2021/12/15 05:41:56;;;;;;;38.67;14.80;;;9.00;86.90;;;;;;5098151;28;20753;-76
2021/12/15 05:44:25;;;;;;;39.27;15.70;;;9.00;86.80;;;;;;5101906;27;20192;-76
2021/12/15 05:46:58;;;;;;;34.17;15.07;;;9.00;86.80;;;;;;5101686;28;20831;-76
2021/12/15 05:49:27;;;;;;;45.13;16.10;;;9.10;86.90;;;;;;5101067;28;20745;-76
2021/12/15 05:51:56;;;;;;;39.43;14.33;;;9.10;86.80;;;;;;5100061;28;20196;-76
2021/12/15 05:54:25;;;;;;;43.70;15.97;;;9.10;86.80;;;;;;5098596;27;20562;-75
2021/12/15 05:56:53;;;;;;;40.00;15.13;;;9.10;86.60;;;;;;5098880;28;20193;-76
2021/12/15 05:59:22;;;;;;;41.63;16.23;;;9.10;86.70;;;;;;5098509;28;20207;-76
2021/12/15 06:01:50;;;;;;;35.70;14.60;;;9.10;86.70;;;;;;5102341;28;20184;-76
2021/12/15 06:04:20;;;;;;;40.90;15.83;;;9.10;86.60;;;;;;5099479;27;20280;-76
2021/12/15 06:06:48;;;;;;;41.23;17.37;;;9.20;86.70;;;;;;5102489;28;20219;-76
2021/12/15 06:09:17;;;;;;;40.47;15.70;;;9.20;86.60;;;;;;5098455;28;20185;-76
2021/12/15 06:11:49;;;;;;;42.37;16.67;;;9.20;86.60;;;;;;5098324;28;20254;-76
2021/12/15 06:14:24;;;;;;;45.03;17.53;;;9.20;86.60;;;;;;5099331;28;20193;-76
2021/12/15 06:16:56;;;;;;;45.77;18.73;;;9.20;86.60;;;;;;5102324;28;20185;-76
2021/12/15 06:19:26;;;;;;;42.50;16.40;;;9.20;86.60;;;;;;5102098;28;20283;-76
2021/12/15 06:21:55;;;;;;;48.83;16.97;;;9.20;86.60;;;;;;5101984;28;20875;-76
2021/12/15 06:24:23;;;;;;;41.00;16.87;;;9.20;86.60;;;;;;5102474;28;20185;-76
2021/12/15 06:26:52;;;;;;;39.37;16.67;;;9.30;86.70;;;;;;5101094;28;20207;-76
2021/12/15 06:29:20;;;;;;;39.27;16.53;;;9.30;86.70;;;;;;5103172;28;20181;-76
2021/12/15 06:31:49;;;;;;;39.80;15.83;;;9.30;86.70;;;;;;5095776;28;20781;-76
2021/12/15 06:34:17;;;;;;;40.33;17.20;;;9.30;86.60;;;;;;5105051;28;20204;-76
2021/12/15 06:36:49;;;;;;;45.40;16.67;;;9.30;86.60;;;;;;5104528;28;20197;-76
2021/12/15 06:39:18;;;;;;;49.60;16.47;;;9.30;86.60;;;;;;5105082;28;20376;-76
2021/12/15 06:41:46;;;;;;;42.40;16.83;;;9.40;86.60;;;;;;5111931;27;20188;-77
2021/12/15 06:44:15;;;;;;;41.83;15.63;;;9.40;86.60;;;;;;5110734;27;20184;-76
2021/12/15 07:00:40;;;;;;;44.80;16.90;;;9.50;86.20;;;;;;5106885;28;20537;-77
2021/12/15 07:03:09;;;;;;;44.03;17.87;;;9.50;86.20;;;;;;5106921;28;20703;-77
2021/12/15 07:05:38;;;;;;;44.07;17.40;;;9.50;86.20;;;;;;5102957;28;20225;-78
2021/12/15 07:08:09;;;;;;;44.67;17.83;;;9.50;86.30;;;;;;5109599;27;20193;-77
2021/12/15 07:10:43;;;;;;;53.15;19.60;;;9.60;86.30;;;;;;5103046;28;20922;-77
2021/12/15 07:13:11;;;;;;;51.20;19.83;;;9.60;86.40;;;;;;5107950;28;20196;-77
2021/12/15 07:15:41;;;;;;;48.53;17.20;;;9.60;86.30;;;;;;5106426;28;20194;-77
2021/12/15 07:18:12;;;;;;;45.27;18.80;;;9.60;86.30;;;;;;5100567;28;20189;-76
2021/12/15 07:20:45;;;;;;;45.60;17.63;;;9.60;86.30;;;;;;5101527;28;20861;-75
2021/12/15 07:23:17;;;;;;;52.00;18.60;;;9.60;86.20;;;;;;5106345;28;20245;-76
2021/12/15 07:25:47;;;;;;;55.30;21.30;;;9.60;86.20;;;;;;5106562;28;20525;-76
2021/12/15 07:28:17;;;;;;;49.47;19.13;;;9.60;86.40;;;;;;5105820;28;20828;-76
2021/12/15 07:30:46;;;;;;;49.10;18.83;;;9.60;86.40;;;;;;5105048;28;20193;-76
2021/12/15 07:33:15;;;;;;;42.70;17.57;;;9.60;86.30;;;;;;5106344;28;20193;-76
2021/12/15 07:35:43;;;;;;;42.97;16.83;;;9.60;86.30;;;;;;5107226;28;20189;-76
2021/12/15 07:38:12;;;;;;;49.60;19.70;;;9.70;86.40;;;;;;5110734;27;20192;-77
2021/12/15 07:40:41;;;;;;;52.03;18.10;;;9.70;86.30;;;;;;5123380;27;20192;-76
2021/12/15 07:43:23;;;;;;;45.03;16.10;;;9.70;86.30;;;;;;5108291;28;20212;-76
2021/12/15 07:45:56;;;;;;;46.83;18.00;;;9.70;86.20;;;;;;5100718;28;20212;-75
2021/12/15 07:48:27;;;;;;;49.57;17.33;;;9.70;86.00;;;;;;5113444;27;20184;-77
2021/12/15 07:50:59;;;;;;;50.30;17.50;;;9.70;86.00;;;;;;5134274;27;20178;-76
2021/12/15 07:53:27;;;;;;;63.00;20.73;;;9.70;86.10;;;;;;5108461;28;20197;-77
2021/12/15 07:55:57;;;;;;;46.47;17.07;;;9.70;86.10;;;;;;5107250;28;20192;-77
2021/12/15 07:58:27;;;;;;;43.90;16.93;;;9.80;86.10;;;;;;5103785;27;20193;-77
2021/12/15 08:00:59;;;;;;;47.40;16.80;;;9.80;86.00;;;;;;5098879;27;20196;-76
2021/12/15 08:03:30;;;;;;;46.53;19.02;;;9.80;86.10;;;;;;5092744;28;20420;-76
2021/12/15 08:05:58;;;;;;;50.43;17.53;;;9.80;86.50;;;;;;5107216;28;20409;-77
2021/12/15 08:08:27;;;;;;;52.63;19.57;;;9.80;86.40;;;;;;5086821;28;20204;-76
2021/12/15 08:10:57;;;;;;;53.30;18.90;;;9.80;86.30;;;;;;5100825;27;20197;-76
2021/12/15 08:13:27;;;;;;;55.00;19.53;;;9.90;86.30;;;;;;5104091;28;20190;-76
2021/12/15 08:15:56;;;;;;;52.93;17.40;;;9.90;86.30;;;;;;5100784;28;20201;-75
2021/12/15 08:18:25;;;;;;;54.83;17.07;;;9.90;86.10;;;;;;5100562;28;20823;-76
2021/12/15 08:20:53;;;;;;;44.80;16.87;;;10.00;86.10;;;;;;5106008;28;20189;-76
2021/12/15 08:23:22;;;;;;;54.30;18.07;;;9.90;85.90;;;;;;5104722;28;20197;-76
2021/12/15 08:25:51;;;;;;;50.90;17.93;;;10.00;85.80;;;;;;5105030;28;20209;-76
2021/12/15 08:28:21;;;;;;;53.10;15.97;;;10.00;85.80;;;;;;5105077;28;20236;-76
2021/12/15 08:30:51;;;;;;;47.30;16.53;;;10.00;85.70;;;;;;5105187;28;20193;-76
2021/12/15 08:33:22;;;;;;;47.00;17.60;;;10.00;85.70;;;;;;5105648;28;20184;-76
2021/12/15 08:35:56;;;;;;;51.07;18.03;;;10.00;85.70;;;;;;5105757;28;20658;-76
2021/12/15 08:38:25;;;;;;;50.13;16.73;;;10.10;85.70;;;;;;5104959;28;20273;-76
2021/12/15 08:40:54;;;;;;;51.00;16.83;;;10.10;85.40;;;;;;5112196;27;20185;-76
2021/12/15 08:43:24;;;;;;;43.00;15.67;;;10.10;85.30;;;;;;5110268;27;20275;-76
2021/12/15 08:45:56;;;;;;;51.50;18.40;;;10.10;85.20;;;;;;5104413;28;20197;-76
2021/12/15 08:48:24;;;;;;;49.43;16.80;;;10.10;85.40;;;;;;5099254;28;20181;-76
2021/12/15 08:50:53;;;;;;;49.23;16.73;;;10.20;85.40;;;;;;5102824;27;20651;-76
2021/12/15 08:53:26;;;;;;;48.93;17.07;;;10.10;85.20;;;;;;5105229;27;20575;-76
2021/12/15 08:55:55;;;;;;;47.80;17.13;;;10.20;85.10;;;;;;5102308;28;20193;-75
2021/12/15 08:58:26;;;;;;;47.33;16.83;;;10.20;85.10;;;;;;5102004;28;20196;-75
2021/12/15 09:00:57;;;;;;;43.27;16.30;;;10.20;84.90;;;;;;5105108;28;20185;-76
2021/12/15 09:03:27;;;;;;;51.07;18.07;;;10.20;84.80;;;;;;5113764;27;20177;-76
2021/12/15 09:05:58;;;;;;;46.97;16.10;;;10.20;84.70;;;;;;5095354;28;20735;-76
2021/12/15 09:08:26;;;;;;;46.23;16.13;;;10.20;84.70;;;;;;5101417;28;20723;-77
2021/12/15 09:10:56;;;;;;;44.20;16.50;;;10.20;84.60;;;;;;5096602;28;20189;-76
2021/12/15 09:13:30;;;;;;;60.00;17.37;;;10.20;84.50;;;;;;5095238;27;20193;-76
2021/12/15 09:16:00;;;;;;;47.10;17.20;;;10.30;84.50;;;;;;5102401;28;20192;-76
2021/12/15 09:18:29;;;;;;;49.87;15.73;;;10.30;84.40;;;;;;5101851;28;20181;-77
2021/12/15 09:20:57;;;;;;;47.45;17.38;;;10.20;84.20;;;;;;5097444;28;20429;-78
2021/12/15 09:23:26;;;;;;;45.80;16.70;;;10.30;84.50;;;;;;5106345;27;20177;-77
2021/12/15 09:25:54;;;;;;;42.23;15.77;;;10.30;84.70;;;;;;5098971;28;20209;-77
2021/12/15 09:28:26;;;;;;;45.30;16.73;;;10.40;84.50;;;;;;5100665;28;20205;-77
2021/12/15 09:30:56;;;;;;;50.07;17.63;;;10.40;84.40;;;;;;5100066;28;20322;-77
2021/12/15 09:36:12;;;;;;;44.20;15.03;;;10.50;84.40;;;;;;5098288;28;20208;-77
2021/12/15 09:38:41;;;;;;;50.17;16.47;;;10.60;84.40;;;;;;5102919;27;20188;-78
2021/12/15 09:41:12;;;;;;;44.90;15.23;;;10.60;84.40;;;;;;5100849;28;20196;-78
2021/12/15 09:43:42;;;;;;;43.57;15.10;;;10.60;84.00;;;;;;5100757;27;20207;-78
2021/12/15 09:46:37;;;;;;;39.30;14.73;;;10.70;83.70;;;;;;5097108;28;20839;-78
2021/12/15 09:57:48;;;;;;;45.95;18.02;;;10.90;82.80;;;;;;5099189;27;20446;-76
2021/12/15 10:03:16;;;;;;;48.03;16.70;;;10.90;82.30;;;;;;5094327;28;20845;-76
2021/12/15 10:05:53;;;;;;;40.23;14.57;;;10.90;81.80;;;;;;5099803;28;20268;-76
2021/12/15 10:19:46;;;;;;;55.67;16.60;;;10.80;81.70;;;;;;5086553;28;20189;-77
2021/12/15 10:22:24;;;;;;;46.17;17.00;;;10.80;81.70;;;;;;5088654;28;20185;-76
2021/12/15 10:24:54;;;;;;;52.03;16.90;;;10.80;81.60;;;;;;5085655;28;20222;-77
2021/12/15 10:27:41;;;;;;;55.87;16.57;;;10.80;81.60;;;;;;5080207;28;20217;-77
2021/12/15 10:30:18;;;;;;;50.10;17.23;;;10.80;81.80;;;;;;5079289;28;20190;-77
2021/12/15 10:32:48;;;;;;;43.53;17.40;;;10.70;82.50;;;;;;5077935;28;20186;-77
2021/12/15 10:35:21;;;;;;;45.53;16.63;;;10.70;81.70;;;;;;5079905;28;20196;-77
2021/12/15 10:38:09;;;;;;;52.63;17.90;;;10.60;81.80;;;;;;5081149;28;20182;-77
2021/12/15 10:40:41;;;;;;;49.07;17.23;;;10.60;81.80;;;;;;5074734;28;20174;-77
2021/12/15 10:43:09;;;;;;;44.07;16.30;;;10.60;82.00;;;;;;5080246;28;20186;-77
2021/12/15 10:45:41;;;;;;;54.53;18.30;;;10.60;82.20;;;;;;5078474;28;20191;-78
2021/12/15 10:48:20;;;;;;;52.67;17.10;;;10.60;82.10;;;;;;5078506;28;20206;-78
2021/12/15 10:50:50;;;;;;;41.13;15.37;;;10.60;82.30;;;;;;5081571;28;20184;-77
2021/12/15 10:53:31;;;;;;;41.87;15.70;;;10.60;82.20;;;;;;5079063;28;20700;-77
2021/12/15 10:56:00;;;;;;;42.90;15.57;;;10.60;82.00;;;;;;5080623;28;20277;-77
2021/12/15 10:58:38;;;;;;;46.07;15.60;;;10.60;81.90;;;;;;5083158;28;20193;-77
2021/12/15 11:01:33;;;;;;;42.47;15.77;;;10.60;82.20;;;;;;5077039;28;20186;-78
2021/12/15 11:04:04;;;;;;;44.60;16.57;;;10.60;82.20;;;;;;5081733;28;20196;-78
2021/12/15 11:06:33;;;;;;;46.93;16.53;;;10.70;82.30;;;;;;5078561;28;20847;-78
2021/12/15 11:09:13;;;;;;;46.70;16.63;;;10.70;82.30;;;;;;5080278;28;20224;-78
2021/12/15 11:11:57;;;;;;;42.50;16.93;;;10.70;82.10;;;;;;5077625;28;20182;-77
2021/12/15 11:14:30;;;;;;;45.10;16.57;;;10.70;82.00;;;;;;5081918;28;20181;-77
2021/12/15 11:17:12;;;;;;;41.80;15.63;;;10.70;81.90;;;;;;5079225;28;20198;-77
2021/12/15 11:19:49;;;;;;;44.73;16.17;;;10.70;81.70;;;;;;5067501;28;21727;-78
2021/12/15 11:23:01;;;;;;;45.07;14.97;;;10.70;81.60;;;;;;5068452;28;20196;-77
2021/12/15 11:25:34;;;;;;;44.80;15.17;;;10.70;81.60;;;;;;5074743;28;21044;-78
2021/12/15 11:28:09;;;;;;;45.33;14.60;;;10.70;81.60;;;;;;5083665;28;20236;-78
2021/12/15 11:30:44;;;;;;;36.20;14.00;;;10.70;82.00;;;;;;5084045;28;20193;-78
2021/12/15 11:33:16;;;;;;;43.33;15.30;;;10.70;81.60;;;;;;5082055;28;20713;-77
2021/12/15 11:35:47;;;;;;;46.47;16.07;;;10.70;81.50;;;;;;5082008;28;20198;-75
2021/12/15 11:38:20;;;;;;;41.47;15.57;;;10.70;81.40;;;;;;5077694;28;20189;-76
2021/12/15 11:40:53;;;;;;;44.27;15.17;;;10.70;81.40;;;;;;5085161;28;20185;-76
2021/12/15 11:43:34;;;;;;;46.27;15.43;;;10.70;81.70;;;;;;5082254;28;20194;-74
2021/12/15 11:46:05;;;;;;;39.67;14.83;;;10.70;81.90;;;;;;5082817;28;20189;-76
2021/12/15 11:48:35;;;;;;;38.60;14.57;;;10.70;81.90;;;;;;5082238;28;20247;-76
2021/12/15 11:51:06;;;;;;;40.90;15.20;;;10.80;81.80;;;;;;5084664;28;20189;-76
2021/12/15 11:53:40;;;;;;;41.27;14.23;;;10.80;81.60;;;;;;5086130;28;20187;-76
2021/12/15 11:56:31;;;;;;;49.90;16.10;;;10.90;81.90;;;;;;5080120;28;20608;-76
2021/12/15 11:59:14;;;;;;;38.33;15.53;;;10.90;81.50;;;;;;5085581;28;20194;-77
2021/12/15 12:01:53;;;;;;;41.40;14.17;;;10.90;81.30;;;;;;5082732;28;20184;-77
2021/12/15 12:04:25;;;;;;;36.90;15.47;;;10.90;81.30;;;;;;5077416;28;20239;-76
2021/12/15 12:06:57;;;;;;;40.10;15.33;;;10.90;81.20;;;;;;5081683;28;20181;-76
2021/12/15 12:09:27;;;;;;;43.73;15.23;;;10.90;81.10;;;;;;5083744;28;20205;-79
2021/12/15 12:11:59;;;;;;;38.70;15.10;;;10.90;80.80;;;;;;5085046;28;20190;-77
2021/12/15 12:14:40;;;;;;;37.33;14.50;;;10.90;80.90;;;;;;5085336;28;20186;-77
2021/12/15 12:17:13;;;;;;;38.90;16.23;;;10.90;80.80;;;;;;5082531;28;20192;-77
2021/12/15 12:19:46;;;;;;;39.20;14.37;;;10.90;80.80;;;;;;5081850;28;20192;-77
2021/12/15 12:22:15;;;;;;;38.93;14.37;;;10.80;80.80;;;;;;5086440;28;20198;-77
2021/12/15 12:24:48;;;;;;;35.10;13.83;;;10.90;81.00;;;;;;5080816;28;20217;-77
2021/12/15 12:27:16;;;;;;;38.73;14.30;;;10.90;81.10;;;;;;5083822;28;20213;-77
2021/12/15 12:29:45;;;;;;;40.87;15.23;;;10.90;81.50;;;;;;5083255;28;20214;-77
2021/12/15 12:32:13;;;;;;;47.87;15.13;;;10.90;80.90;;;;;;5083855;28;20192;-77
2021/12/15 12:34:44;;;;;;;40.53;15.53;;;10.90;80.80;;;;;;5083637;28;20272;-77
2021/12/15 12:37:14;;;;;;;39.53;14.90;;;10.90;80.60;;;;;;5084313;28;20232;-77
2021/12/15 12:39:48;;;;;;;38.37;14.43;;;10.90;80.40;;;;;;5080878;28;20194;-77
2021/12/15 12:42:30;;;;;;;33.33;13.53;;;10.90;80.60;;;;;;5073607;28;20174;-77
2021/12/15 12:45:31;;;;;;;45.10;14.73;;;10.90;80.60;;;;;;5085205;28;20178;-77
2021/12/15 12:48:29;;;;;;;40.57;15.07;;;10.80;80.50;;;;;;5079104;28;20186;-76
2021/12/15 12:59:33;;;;;;;38.53;15.37;;;10.90;81.00;;;;;;5084586;28;20197;-77
2021/12/15 13:02:05;;;;;;;37.03;14.37;;;10.90;81.10;;;;;;5082344;28;20208;-76
2021/12/15 13:04:39;;;;;;;37.47;15.60;;;10.90;81.10;;;;;;5088788;28;20818;-77
2021/12/15 13:07:08;;;;;;;37.53;14.87;;;11.00;81.10;;;;;;5094221;28;20197;-77
2021/12/15 13:09:49;;;;;;;41.50;15.60;;;11.00;81.10;;;;;;5084552;28;20698;-77
2021/12/15 13:12:21;;;;;;;34.80;13.47;;;11.00;81.00;;;;;;5081682;28;20190;-77
2021/12/15 13:14:50;;;;;;;36.33;13.70;;;11.00;80.30;;;;;;5082916;28;20186;-76
2021/12/15 13:17:24;;;;;;;35.67;13.37;;;11.00;80.50;;;;;;5084259;28;20193;-77
2021/12/15 13:19:53;;;;;;;32.40;14.53;;;11.10;80.30;;;;;;5083184;28;20182;-79
2021/12/15 13:22:32;;;;;;;30.57;13.20;;;11.10;80.10;;;;;;5083922;28;20194;-76
2021/12/15 13:30:47;;;;;;;34.63;14.00;;;11.00;79.90;;;;;;5084036;28;20924;-75
2021/12/15 13:33:19;;;;;;;38.70;15.00;;;11.00;79.90;;;;;;5084375;28;20197;-75
2021/12/15 13:35:52;;;;;;;31.10;14.20;;;11.00;79.70;;;;;;5082782;28;20197;-75
2021/12/15 13:38:32;;;;;;;41.57;15.17;;;11.00;79.90;;;;;;5077271;28;20912;-76
2021/12/15 13:41:14;;;;;;;31.27;13.63;;;11.00;80.10;;;;;;5074887;28;20185;-75
2021/12/15 13:43:50;;;;;;;32.60;14.17;;;11.00;80.10;;;;;;5082365;28;20186;-76
2021/12/15 13:46:42;;;;;;;31.83;13.00;;;11.00;80.10;;;;;;5076270;28;20193;-74
2021/12/15 13:49:41;;;;;;;31.87;13.27;;;11.00;79.60;;;;;;5082731;28;20210;-75
2021/12/15 13:52:34;;;;;;;30.43;12.70;;;11.00;79.90;;;;;;5082117;28;20279;-76
2021/12/15 13:55:21;;;;;;;28.17;12.67;;;11.00;79.30;;;;;;5071836;28;20187;-75
2021/12/15 13:57:59;;;;;;;29.77;13.07;;;11.00;78.60;;;;;;5065935;28;20182;-76
2021/12/15 14:00:33;;;;;;;30.60;12.60;;;11.00;78.60;;;;;;5078700;28;20190;-76
2021/12/15 14:03:07;;;;;;;29.17;12.07;;;11.00;78.90;;;;;;5080607;28;20193;-76
2021/12/15 14:05:39;;;;;;;35.70;12.60;;;11.10;79.00;;;;;;5080434;28;20190;-76
2021/12/15 14:08:10;;;;;;;31.23;12.87;;;11.10;79.10;;;;;;5080663;28;20261;-76
2021/12/15 14:10:55;;;;;;;29.27;13.03;;;11.20;79.30;;;;;;5068982;28;20213;-76
2021/12/15 14:13:51;;;;;;;31.97;13.63;;;11.20;79.10;;;;;;5080724;28;20198;-76